sensor_id;sensor_type;location;lat;lon;timestamp;P1;durP1;ratioP1;P2;durP2;ratioP2
13941;SDS011;7043;51.630;7.254;2022-10-14T00:01:25;32.70;;;27.23;;
13941;SDS011;7043;51.630;7.254;2022-10-14T00:03:53;34.53;;;26.53;;
13941;SDS011;7043;51.630;7.254;2022-10-14T00:06:21;33.40;;;25.80;;
13941;SDS011;7043;51.630;7.254;2022-10-14T00:08:47;33.30;;;25.47;;
13941;SDS011;7043;51.630;7.254;2022-10-14T00:11:17;32.37;;;25.70;;
13941;SDS011;7043;51.630;7.254;2022-10-14T00:13:46;33.63;;;26.30;;
13941;SDS011;7043;51.630;7.254;2022-10-14T00:16:16;33.93;;;25.77;;
13941;SDS011;7043;51.630;7.254;2022-10-14T00:18:43;33.57;;;27.17;;
13941;SDS011;7043;51.630;7.254;2022-10-14T00:21:09;31.17;;;26.37;;
13941;SDS011;7043;51.630;7.254;2022-10-14T00:23:35;31.70;;;26.17;;
13941;SDS011;7043;51.630;7.254;2022-10-14T00:26:01;35.77;;;26.03;;
13941;SDS011;7043;51.630;7.254;2022-10-14T00:28:28;31.17;;;25.83;;
13941;SDS011;7043;51.630;7.254;2022-10-14T00:30:55;31.80;;;26.80;;
13941;SDS011;7043;51.630;7.254;2022-10-14T00:33:21;31.07;;;26.50;;
13941;SDS011;7043;51.630;7.254;2022-10-14T00:35:57;30.77;;;26.40;;
13941;SDS011;7043;51.630;7.254;2022-10-14T00:38:24;32.30;;;25.60;;
13941;SDS011;7043;51.630;7.254;2022-10-14T00:40:51;31.53;;;26.50;;
13941;SDS011;7043;51.630;7.254;2022-10-14T00:43:17;33.23;;;26.90;;
13941;SDS011;7043;51.630;7.254;2022-10-14T00:45:43;30.70;;;25.73;;
13941;SDS011;7043;51.630;7.254;2022-10-14T00:48:09;31.70;;;25.57;;
13941;SDS011;7043;51.630;7.254;2022-10-14T00:50:36;35.87;;;26.50;;
13941;SDS011;7043;51.630;7.254;2022-10-14T00:53:02;38.00;;;27.27;;
13941;SDS011;7043;51.630;7.254;2022-10-14T00:55:28;31.33;;;26.27;;
13941;SDS011;7043;51.630;7.254;2022-10-14T00:57:55;37.30;;;28.37;;
13941;SDS011;7043;51.630;7.254;2022-10-14T01:00:21;36.03;;;28.23;;
13941;SDS011;7043;51.630;7.254;2022-10-14T01:02:47;40.90;;;31.63;;
13941;SDS011;7043;51.630;7.254;2022-10-14T01:05:14;38.33;;;27.80;;
13941;SDS011;7043;51.630;7.254;2022-10-14T01:15:16;36.20;;;29.53;;
13941;SDS011;7043;51.630;7.254;2022-10-14T01:17:48;38.20;;;28.30;;
13941;SDS011;7043;51.630;7.254;2022-10-14T01:21:05;37.53;;;29.70;;
13941;SDS011;7043;51.630;7.254;2022-10-14T01:26:08;40.23;;;31.40;;
13941;SDS011;7043;51.630;7.254;2022-10-14T01:28:52;38.90;;;31.60;;
13941;SDS011;7043;51.630;7.254;2022-10-14T01:31:20;40.33;;;30.60;;
13941;SDS011;7043;51.630;7.254;2022-10-14T01:33:50;36.87;;;31.20;;
13941;SDS011;7043;51.630;7.254;2022-10-14T01:36:27;39.73;;;31.80;;
13941;SDS011;7043;51.630;7.254;2022-10-14T01:41:39;42.87;;;32.13;;
13941;SDS011;7043;51.630;7.254;2022-10-14T01:44:07;45.20;;;32.00;;
13941;SDS011;7043;51.630;7.254;2022-10-14T01:46:34;37.67;;;31.33;;
13941;SDS011;7043;51.630;7.254;2022-10-14T01:49:02;41.10;;;30.87;;
13941;SDS011;7043;51.630;7.254;2022-10-14T01:51:31;40.70;;;32.43;;
13941;SDS011;7043;51.630;7.254;2022-10-14T01:54:00;38.70;;;31.90;;
13941;SDS011;7043;51.630;7.254;2022-10-14T01:56:28;42.63;;;32.33;;
13941;SDS011;7043;51.630;7.254;2022-10-14T01:58:55;39.30;;;31.80;;
13941;SDS011;7043;51.630;7.254;2022-10-14T02:01:22;37.37;;;30.23;;
13941;SDS011;7043;51.630;7.254;2022-10-14T02:03:48;38.27;;;30.97;;
13941;SDS011;7043;51.630;7.254;2022-10-14T02:11:25;38.07;;;30.33;;
13941;SDS011;7043;51.630;7.254;2022-10-14T02:14:05;40.80;;;31.57;;
13941;SDS011;7043;51.630;7.254;2022-10-14T02:21:43;34.73;;;28.57;;
13941;SDS011;7043;51.630;7.254;2022-10-14T02:24:31;35.60;;;28.53;;
13941;SDS011;7043;51.630;7.254;2022-10-14T02:27:00;36.47;;;27.97;;
13941;SDS011;7043;51.630;7.254;2022-10-14T02:29:27;35.97;;;28.83;;
13941;SDS011;7043;51.630;7.254;2022-10-14T02:31:54;34.30;;;27.97;;
13941;SDS011;7043;51.630;7.254;2022-10-14T02:34:21;38.80;;;28.70;;
13941;SDS011;7043;51.630;7.254;2022-10-14T02:36:48;39.17;;;28.40;;
13941;SDS011;7043;51.630;7.254;2022-10-14T02:39:16;35.87;;;27.97;;
13941;SDS011;7043;51.630;7.254;2022-10-14T02:41:45;34.70;;;27.37;;
13941;SDS011;7043;51.630;7.254;2022-10-14T02:44:11;31.80;;;27.87;;
13941;SDS011;7043;51.630;7.254;2022-10-14T02:46:38;35.40;;;27.20;;
13941;SDS011;7043;51.630;7.254;2022-10-14T02:49:05;36.53;;;27.27;;
13941;SDS011;7043;51.630;7.254;2022-10-14T02:51:31;37.73;;;28.17;;
13941;SDS011;7043;51.630;7.254;2022-10-14T02:53:57;38.93;;;27.40;;
13941;SDS011;7043;51.630;7.254;2022-10-14T02:56:25;35.00;;;27.13;;
13941;SDS011;7043;51.630;7.254;2022-10-14T02:58:51;34.97;;;28.17;;
13941;SDS011;7043;51.630;7.254;2022-10-14T03:01:17;35.90;;;28.87;;
13941;SDS011;7043;51.630;7.254;2022-10-14T03:03:43;36.63;;;28.00;;
13941;SDS011;7043;51.630;7.254;2022-10-14T03:06:09;36.07;;;27.97;;
13941;SDS011;7043;51.630;7.254;2022-10-14T03:08:35;36.87;;;28.70;;
13941;SDS011;7043;51.630;7.254;2022-10-14T03:11:01;33.17;;;26.67;;
13941;SDS011;7043;51.630;7.254;2022-10-14T03:13:27;33.63;;;26.60;;
13941;SDS011;7043;51.630;7.254;2022-10-14T03:15:53;30.97;;;26.07;;
13941;SDS011;7043;51.630;7.254;2022-10-14T03:18:19;30.93;;;24.63;;
13941;SDS011;7043;51.630;7.254;2022-10-14T03:20:45;33.47;;;26.77;;
13941;SDS011;7043;51.630;7.254;2022-10-14T03:23:12;34.03;;;26.63;;
13941;SDS011;7043;51.630;7.254;2022-10-14T03:25:38;32.13;;;26.27;;
13941;SDS011;7043;51.630;7.254;2022-10-14T03:28:04;32.63;;;27.43;;
13941;SDS011;7043;51.630;7.254;2022-10-14T03:30:30;33.47;;;26.60;;
13941;SDS011;7043;51.630;7.254;2022-10-14T03:32:56;37.07;;;29.00;;
13941;SDS011;7043;51.630;7.254;2022-10-14T03:35:22;38.60;;;28.37;;
13941;SDS011;7043;51.630;7.254;2022-10-14T03:37:48;35.47;;;29.00;;
13941;SDS011;7043;51.630;7.254;2022-10-14T03:40:17;36.73;;;28.40;;
13941;SDS011;7043;51.630;7.254;2022-10-14T03:42:42;36.87;;;28.63;;
13941;SDS011;7043;51.630;7.254;2022-10-14T03:45:09;37.97;;;30.43;;
13941;SDS011;7043;51.630;7.254;2022-10-14T03:47:35;36.73;;;29.00;;
13941;SDS011;7043;51.630;7.254;2022-10-14T03:50:01;36.60;;;29.70;;
13941;SDS011;7043;51.630;7.254;2022-10-14T03:52:28;42.20;;;31.77;;
13941;SDS011;7043;51.630;7.254;2022-10-14T03:54:54;40.93;;;31.47;;
13941;SDS011;7043;51.630;7.254;2022-10-14T03:57:20;48.37;;;34.17;;
13941;SDS011;7043;51.630;7.254;2022-10-14T03:59:46;49.50;;;34.13;;
13941;SDS011;7043;51.630;7.254;2022-10-14T04:02:12;49.80;;;36.00;;
13941;SDS011;7043;51.630;7.254;2022-10-14T04:04:38;52.07;;;35.23;;
13941;SDS011;7043;51.630;7.254;2022-10-14T04:07:04;55.73;;;37.57;;
13941;SDS011;7043;51.630;7.254;2022-10-14T04:09:30;48.60;;;34.20;;
13941;SDS011;7043;51.630;7.254;2022-10-14T04:11:56;52.73;;;35.90;;
13941;SDS011;7043;51.630;7.254;2022-10-14T04:14:23;51.83;;;36.03;;
13941;SDS011;7043;51.630;7.254;2022-10-14T04:16:50;55.93;;;37.80;;
13941;SDS011;7043;51.630;7.254;2022-10-14T04:19:16;50.70;;;36.03;;
13941;SDS011;7043;51.630;7.254;2022-10-14T04:21:42;49.60;;;36.23;;
13941;SDS011;7043;51.630;7.254;2022-10-14T04:24:08;56.70;;;37.07;;
13941;SDS011;7043;51.630;7.254;2022-10-14T04:26:34;47.43;;;34.37;;
13941;SDS011;7043;51.630;7.254;2022-10-14T04:29:00;44.93;;;33.57;;
13941;SDS011;7043;51.630;7.254;2022-10-14T04:31:26;49.10;;;34.83;;
13941;SDS011;7043;51.630;7.254;2022-10-14T04:33:52;42.17;;;31.80;;
13941;SDS011;7043;51.630;7.254;2022-10-14T04:36:18;45.27;;;33.77;;
13941;SDS011;7043;51.630;7.254;2022-10-14T04:38:44;40.37;;;30.40;;
13941;SDS011;7043;51.630;7.254;2022-10-14T04:41:10;38.33;;;30.07;;
13941;SDS011;7043;51.630;7.254;2022-10-14T04:43:36;39.60;;;30.20;;
13941;SDS011;7043;51.630;7.254;2022-10-14T04:46:02;37.47;;;28.60;;
13941;SDS011;7043;51.630;7.254;2022-10-14T04:48:28;33.60;;;27.93;;
13941;SDS011;7043;51.630;7.254;2022-10-14T04:50:54;31.13;;;25.83;;
13941;SDS011;7043;51.630;7.254;2022-10-14T04:53:20;29.83;;;26.63;;
13941;SDS011;7043;51.630;7.254;2022-10-14T04:55:46;32.50;;;26.63;;
13941;SDS011;7043;51.630;7.254;2022-10-14T04:58:13;30.63;;;25.57;;
13941;SDS011;7043;51.630;7.254;2022-10-14T05:00:40;33.97;;;26.87;;
13941;SDS011;7043;51.630;7.254;2022-10-14T05:03:06;31.10;;;25.83;;
13941;SDS011;7043;51.630;7.254;2022-10-14T05:05:32;29.00;;;25.20;;
13941;SDS011;7043;51.630;7.254;2022-10-14T05:07:58;30.63;;;25.20;;
13941;SDS011;7043;51.630;7.254;2022-10-14T05:10:24;28.37;;;23.60;;
13941;SDS011;7043;51.630;7.254;2022-10-14T05:12:50;29.83;;;24.40;;
13941;SDS011;7043;51.630;7.254;2022-10-14T05:15:16;30.10;;;24.70;;
13941;SDS011;7043;51.630;7.254;2022-10-14T05:17:42;28.77;;;24.00;;
13941;SDS011;7043;51.630;7.254;2022-10-14T05:20:09;30.17;;;25.13;;
13941;SDS011;7043;51.630;7.254;2022-10-14T05:22:36;25.80;;;22.87;;
13941;SDS011;7043;51.630;7.254;2022-10-14T05:25:05;25.43;;;22.50;;
13941;SDS011;7043;51.630;7.254;2022-10-14T05:27:31;27.23;;;24.03;;
13941;SDS011;7043;51.630;7.254;2022-10-14T05:29:57;29.20;;;25.47;;
13941;SDS011;7043;51.630;7.254;2022-10-14T05:32:23;28.63;;;24.00;;
13941;SDS011;7043;51.630;7.254;2022-10-14T05:34:49;29.87;;;25.87;;
13941;SDS011;7043;51.630;7.254;2022-10-14T05:37:15;25.00;;;22.30;;
13941;SDS011;7043;51.630;7.254;2022-10-14T05:39:41;26.20;;;23.30;;
13941;SDS011;7043;51.630;7.254;2022-10-14T05:42:07;26.40;;;23.43;;
13941;SDS011;7043;51.630;7.254;2022-10-14T05:44:33;29.27;;;24.77;;
13941;SDS011;7043;51.630;7.254;2022-10-14T05:46:59;26.70;;;22.90;;
13941;SDS011;7043;51.630;7.254;2022-10-14T05:49:25;26.87;;;22.97;;
13941;SDS011;7043;51.630;7.254;2022-10-14T05:51:51;29.23;;;23.33;;
13941;SDS011;7043;51.630;7.254;2022-10-14T05:54:17;26.87;;;23.13;;
13941;SDS011;7043;51.630;7.254;2022-10-14T05:56:43;27.13;;;22.73;;
13941;SDS011;7043;51.630;7.254;2022-10-14T05:59:09;25.70;;;22.13;;
13941;SDS011;7043;51.630;7.254;2022-10-14T06:01:35;27.37;;;22.87;;
13941;SDS011;7043;51.630;7.254;2022-10-14T06:04:02;26.63;;;23.10;;
13941;SDS011;7043;51.630;7.254;2022-10-14T06:06:28;30.40;;;23.93;;
13941;SDS011;7043;51.630;7.254;2022-10-14T06:08:54;31.20;;;25.70;;
13941;SDS011;7043;51.630;7.254;2022-10-14T06:11:21;36.30;;;27.23;;
13941;SDS011;7043;51.630;7.254;2022-10-14T06:13:46;36.23;;;27.53;;
13941;SDS011;7043;51.630;7.254;2022-10-14T06:16:12;35.27;;;27.33;;
13941;SDS011;7043;51.630;7.254;2022-10-14T06:18:39;38.40;;;28.37;;
13941;SDS011;7043;51.630;7.254;2022-10-14T06:21:06;39.93;;;28.87;;
13941;SDS011;7043;51.630;7.254;2022-10-14T06:23:32;35.63;;;27.90;;
13941;SDS011;7043;51.630;7.254;2022-10-14T06:26:01;38.30;;;28.77;;
13941;SDS011;7043;51.630;7.254;2022-10-14T06:28:28;37.27;;;28.17;;
13941;SDS011;7043;51.630;7.254;2022-10-14T06:30:54;33.90;;;26.90;;
13941;SDS011;7043;51.630;7.254;2022-10-14T06:33:20;34.83;;;26.87;;
13941;SDS011;7043;51.630;7.254;2022-10-14T06:35:46;31.67;;;25.13;;
13941;SDS011;7043;51.630;7.254;2022-10-14T06:38:13;30.67;;;24.80;;
13941;SDS011;7043;51.630;7.254;2022-10-14T06:40:39;30.30;;;24.60;;
13941;SDS011;7043;51.630;7.254;2022-10-14T06:43:05;29.87;;;23.73;;
13941;SDS011;7043;51.630;7.254;2022-10-14T06:45:31;25.37;;;22.40;;
13941;SDS011;7043;51.630;7.254;2022-10-14T06:47:57;25.20;;;21.77;;
13941;SDS011;7043;51.630;7.254;2022-10-14T06:50:23;23.93;;;20.57;;
13941;SDS011;7043;51.630;7.254;2022-10-14T06:52:49;21.03;;;18.83;;
13941;SDS011;7043;51.630;7.254;2022-10-14T06:55:15;22.63;;;18.97;;
13941;SDS011;7043;51.630;7.254;2022-10-14T06:57:41;20.77;;;17.57;;
13941;SDS011;7043;51.630;7.254;2022-10-14T07:00:07;19.67;;;17.57;;
13941;SDS011;7043;51.630;7.254;2022-10-14T07:02:34;19.17;;;17.37;;
13941;SDS011;7043;51.630;7.254;2022-10-14T07:05:01;19.23;;;17.23;;
13941;SDS011;7043;51.630;7.254;2022-10-14T07:07:27;18.60;;;16.70;;
13941;SDS011;7043;51.630;7.254;2022-10-14T07:09:53;18.00;;;16.17;;
13941;SDS011;7043;51.630;7.254;2022-10-14T07:12:19;17.43;;;15.60;;
13941;SDS011;7043;51.630;7.254;2022-10-14T07:14:45;17.83;;;15.80;;
13941;SDS011;7043;51.630;7.254;2022-10-14T07:17:11;15.90;;;14.30;;
13941;SDS011;7043;51.630;7.254;2022-10-14T07:19:37;16.53;;;14.77;;
13941;SDS011;7043;51.630;7.254;2022-10-14T07:22:03;16.00;;;14.43;;
13941;SDS011;7043;51.630;7.254;2022-10-14T07:24:32;15.53;;;14.13;;
13941;SDS011;7043;51.630;7.254;2022-10-14T07:26:58;15.90;;;14.33;;
13941;SDS011;7043;51.630;7.254;2022-10-14T07:29:25;14.97;;;13.57;;
13941;SDS011;7043;51.630;7.254;2022-10-14T07:31:51;14.47;;;13.10;;
13941;SDS011;7043;51.630;7.254;2022-10-14T07:34:17;14.67;;;13.37;;
13941;SDS011;7043;51.630;7.254;2022-10-14T07:36:43;14.20;;;12.80;;
13941;SDS011;7043;51.630;7.254;2022-10-14T07:39:09;15.73;;;14.23;;
13941;SDS011;7043;51.630;7.254;2022-10-14T07:41:35;14.57;;;13.13;;
13941;SDS011;7043;51.630;7.254;2022-10-14T07:44:03;14.33;;;13.03;;
13941;SDS011;7043;51.630;7.254;2022-10-14T07:46:33;15.03;;;13.47;;
13941;SDS011;7043;51.630;7.254;2022-10-14T07:49:01;15.90;;;14.30;;
13941;SDS011;7043;51.630;7.254;2022-10-14T07:51:28;14.80;;;13.40;;
13941;SDS011;7043;51.630;7.254;2022-10-14T07:53:54;14.60;;;13.20;;
13941;SDS011;7043;51.630;7.254;2022-10-14T07:56:21;14.70;;;13.33;;
13941;SDS011;7043;51.630;7.254;2022-10-14T07:58:47;13.47;;;11.93;;
13941;SDS011;7043;51.630;7.254;2022-10-14T08:01:13;13.80;;;12.53;;
13941;SDS011;7043;51.630;7.254;2022-10-14T08:03:40;12.97;;;11.77;;
13941;SDS011;7043;51.630;7.254;2022-10-14T08:06:06;13.57;;;12.37;;
13941;SDS011;7043;51.630;7.254;2022-10-14T08:08:32;12.83;;;11.73;;
13941;SDS011;7043;51.630;7.254;2022-10-14T08:13:45;12.63;;;11.53;;
13941;SDS011;7043;51.630;7.254;2022-10-14T08:16:22;12.60;;;11.40;;
13941;SDS011;7043;51.630;7.254;2022-10-14T08:18:49;11.73;;;10.73;;
13941;SDS011;7043;51.630;7.254;2022-10-14T08:21:15;12.30;;;11.20;;
13941;SDS011;7043;51.630;7.254;2022-10-14T08:23:42;10.60;;;9.70;;
13941;SDS011;7043;51.630;7.254;2022-10-14T08:26:28;11.27;;;10.17;;
13941;SDS011;7043;51.630;7.254;2022-10-14T08:28:55;11.10;;;10.10;;
13941;SDS011;7043;51.630;7.254;2022-10-14T08:31:21;9.47;;;8.70;;
13941;SDS011;7043;51.630;7.254;2022-10-14T08:33:47;10.33;;;9.30;;
13941;SDS011;7043;51.630;7.254;2022-10-14T08:36:13;9.43;;;8.63;;
13941;SDS011;7043;51.630;7.254;2022-10-14T08:38:39;9.20;;;8.37;;
13941;SDS011;7043;51.630;7.254;2022-10-14T08:41:16;8.57;;;7.80;;
13941;SDS011;7043;51.630;7.254;2022-10-14T08:43:49;8.67;;;7.97;;
13941;SDS011;7043;51.630;7.254;2022-10-14T08:46:20;9.20;;;8.40;;
13941;SDS011;7043;51.630;7.254;2022-10-14T08:48:48;8.73;;;8.03;;
13941;SDS011;7043;51.630;7.254;2022-10-14T08:51:15;9.37;;;8.27;;
13941;SDS011;7043;51.630;7.254;2022-10-14T08:53:43;8.83;;;8.13;;
13941;SDS011;7043;51.630;7.254;2022-10-14T08:56:11;9.00;;;8.20;;
13941;SDS011;7043;51.630;7.254;2022-10-14T08:58:59;8.27;;;7.57;;
13941;SDS011;7043;51.630;7.254;2022-10-14T09:01:28;7.77;;;7.07;;
13941;SDS011;7043;51.630;7.254;2022-10-14T09:03:58;7.80;;;7.07;;
13941;SDS011;7043;51.630;7.254;2022-10-14T09:06:26;7.20;;;6.60;;
13941;SDS011;7043;51.630;7.254;2022-10-14T09:08:58;6.93;;;6.33;;
13941;SDS011;7043;51.630;7.254;2022-10-14T09:11:25;6.80;;;6.10;;
13941;SDS011;7043;51.630;7.254;2022-10-14T09:13:54;7.83;;;6.30;;
13941;SDS011;7043;51.630;7.254;2022-10-14T09:16:28;6.67;;;6.07;;
13941;SDS011;7043;51.630;7.254;2022-10-14T09:18:55;5.67;;;5.07;;
13941;SDS011;7043;51.630;7.254;2022-10-14T09:21:27;5.30;;;4.80;;
13941;SDS011;7043;51.630;7.254;2022-10-14T09:23:55;4.63;;;4.23;;
13941;SDS011;7043;51.630;7.254;2022-10-14T09:26:22;4.43;;;3.90;;
13941;SDS011;7043;51.630;7.254;2022-10-14T09:28:48;4.07;;;3.67;;
13941;SDS011;7043;51.630;7.254;2022-10-14T09:31:18;4.13;;;3.73;;
13941;SDS011;7043;51.630;7.254;2022-10-14T09:33:44;4.70;;;3.80;;
13941;SDS011;7043;51.630;7.254;2022-10-14T09:36:17;5.13;;;4.73;;
13941;SDS011;7043;51.630;7.254;2022-10-14T09:38:45;5.30;;;4.80;;
13941;SDS011;7043;51.630;7.254;2022-10-14T09:41:11;4.37;;;4.07;;
13941;SDS011;7043;51.630;7.254;2022-10-14T09:43:40;5.57;;;3.80;;
13941;SDS011;7043;51.630;7.254;2022-10-14T09:46:25;3.83;;;3.40;;
13941;SDS011;7043;51.630;7.254;2022-10-14T09:48:50;3.90;;;3.60;;
13941;SDS011;7043;51.630;7.254;2022-10-14T09:53:43;3.60;;;3.10;;
13941;SDS011;7043;51.630;7.254;2022-10-14T09:56:11;3.50;;;3.20;;
13941;SDS011;7043;51.630;7.254;2022-10-14T10:01:04;3.00;;;2.60;;
13941;SDS011;7043;51.630;7.254;2022-10-14T10:03:32;2.87;;;2.67;;
13941;SDS011;7043;51.630;7.254;2022-10-14T10:06:03;3.27;;;2.73;;
13941;SDS011;7043;51.630;7.254;2022-10-14T10:08:30;3.10;;;2.67;;
13941;SDS011;7043;51.630;7.254;2022-10-14T10:11:00;5.20;;;4.70;;
13941;SDS011;7043;51.630;7.254;2022-10-14T10:13:49;2.87;;;2.67;;
13941;SDS011;7043;51.630;7.254;2022-10-14T10:16:21;3.70;;;2.43;;
13941;SDS011;7043;51.630;7.254;2022-10-14T10:18:48;2.50;;;2.10;;
13941;SDS011;7043;51.630;7.254;2022-10-14T10:21:15;2.67;;;2.47;;
13941;SDS011;7043;51.630;7.254;2022-10-14T10:23:49;2.67;;;2.20;;
13941;SDS011;7043;51.630;7.254;2022-10-14T10:26:17;2.47;;;2.27;;
13941;SDS011;7043;51.630;7.254;2022-10-14T10:28:45;2.83;;;2.20;;
13941;SDS011;7043;51.630;7.254;2022-10-14T10:34:12;2.30;;;2.10;;
13941;SDS011;7043;51.630;7.254;2022-10-14T10:36:38;2.30;;;2.07;;
13941;SDS011;7043;51.630;7.254;2022-10-14T10:42:03;2.97;;;2.00;;
13941;SDS011;7043;51.630;7.254;2022-10-14T10:55:11;2.03;;;1.83;;
13941;SDS011;7043;51.630;7.254;2022-10-14T11:00:11;2.10;;;1.83;;
13941;SDS011;7043;51.630;7.254;2022-10-14T11:08:14;3.37;;;2.73;;
13941;SDS011;7043;51.630;7.254;2022-10-14T11:17:05;2.10;;;1.70;;
13941;SDS011;7043;51.630;7.254;2022-10-14T11:19:51;2.40;;;2.07;;
13941;SDS011;7043;51.630;7.254;2022-10-14T11:27:26;1.80;;;1.70;;
13941;SDS011;7043;51.630;7.254;2022-10-14T11:30:02;1.63;;;1.53;;
13941;SDS011;7043;51.630;7.254;2022-10-14T11:37:54;1.60;;;1.50;;
13941;SDS011;7043;51.630;7.254;2022-10-14T11:40:25;2.10;;;1.90;;
13941;SDS011;7043;51.630;7.254;2022-10-14T11:50:46;2.27;;;1.80;;
13941;SDS011;7043;51.630;7.254;2022-10-14T11:53:21;2.50;;;2.00;;
13941;SDS011;7043;51.630;7.254;2022-10-14T11:55:59;3.37;;;2.47;;
13941;SDS011;7043;51.630;7.254;2022-10-14T11:58:27;2.17;;;1.97;;
13941;SDS011;7043;51.630;7.254;2022-10-14T12:00:54;3.77;;;2.20;;
13941;SDS011;7043;51.630;7.254;2022-10-14T12:06:11;2.87;;;2.20;;
13941;SDS011;7043;51.630;7.254;2022-10-14T12:13:48;3.70;;;2.53;;
13941;SDS011;7043;51.630;7.254;2022-10-14T12:16:16;3.33;;;3.03;;
13941;SDS011;7043;51.630;7.254;2022-10-14T12:18:44;3.17;;;2.87;;
13941;SDS011;7043;51.630;7.254;2022-10-14T12:28:48;4.33;;;3.10;;
13941;SDS011;7043;51.630;7.254;2022-10-14T12:36:46;5.27;;;4.57;;
13941;SDS011;7043;51.630;7.254;2022-10-14T12:44:13;5.23;;;4.30;;
13941;SDS011;7043;51.630;7.254;2022-10-14T12:46:42;6.30;;;4.90;;
13941;SDS011;7043;51.630;7.254;2022-10-14T12:49:29;5.73;;;5.00;;
13941;SDS011;7043;51.630;7.254;2022-10-14T12:51:57;8.20;;;5.70;;
13941;SDS011;7043;51.630;7.254;2022-10-14T12:54:25;7.27;;;5.60;;
13941;SDS011;7043;51.630;7.254;2022-10-14T12:56:56;6.67;;;5.97;;
13941;SDS011;7043;51.630;7.254;2022-10-14T12:59:33;6.13;;;5.17;;
13941;SDS011;7043;51.630;7.254;2022-10-14T13:04:48;7.00;;;6.27;;
13941;SDS011;7043;51.630;7.254;2022-10-14T13:09:44;7.00;;;6.07;;
13941;SDS011;7043;51.630;7.254;2022-10-14T13:12:37;7.57;;;6.33;;
13941;SDS011;7043;51.630;7.254;2022-10-14T13:17:55;9.47;;;6.90;;
13941;SDS011;7043;51.630;7.254;2022-10-14T13:25:43;8.23;;;7.07;;
13941;SDS011;7043;51.630;7.254;2022-10-14T13:28:13;8.27;;;6.80;;
13941;SDS011;7043;51.630;7.254;2022-10-14T13:33:33;8.70;;;7.80;;
13941;SDS011;7043;51.630;7.254;2022-10-14T13:36:03;9.40;;;8.37;;
13941;SDS011;7043;51.630;7.254;2022-10-14T13:38:33;10.07;;;8.30;;
13941;SDS011;7043;51.630;7.254;2022-10-14T13:40:59;8.97;;;8.07;;
13941;SDS011;7043;51.630;7.254;2022-10-14T13:43:27;8.97;;;8.07;;
13941;SDS011;7043;51.630;7.254;2022-10-14T13:45:57;8.60;;;7.70;;
13941;SDS011;7043;51.630;7.254;2022-10-14T13:48:34;11.70;;;8.40;;
13941;SDS011;7043;51.630;7.254;2022-10-14T13:53:59;10.40;;;9.13;;
13941;SDS011;7043;51.630;7.254;2022-10-14T13:56:28;9.70;;;8.70;;
13941;SDS011;7043;51.630;7.254;2022-10-14T13:58:55;9.17;;;8.17;;
13941;SDS011;7043;51.630;7.254;2022-10-14T14:01:22;10.33;;;9.23;;
13941;SDS011;7043;51.630;7.254;2022-10-14T14:03:49;9.83;;;8.83;;
13941;SDS011;7043;51.630;7.254;2022-10-14T14:06:17;12.67;;;9.13;;
13941;SDS011;7043;51.630;7.254;2022-10-14T14:11:10;11.20;;;9.03;;
13941;SDS011;7043;51.630;7.254;2022-10-14T14:13:48;10.07;;;8.97;;
13941;SDS011;7043;51.630;7.254;2022-10-14T14:16:20;11.70;;;10.50;;
13941;SDS011;7043;51.630;7.254;2022-10-14T14:18:48;10.63;;;9.37;;
13941;SDS011;7043;51.630;7.254;2022-10-14T14:21:14;10.63;;;8.47;;
13941;SDS011;7043;51.630;7.254;2022-10-14T14:23:53;9.60;;;8.60;;
13941;SDS011;7043;51.630;7.254;2022-10-14T14:26:20;9.53;;;8.47;;
13941;SDS011;7043;51.630;7.254;2022-10-14T14:28:50;9.23;;;8.30;;
13941;SDS011;7043;51.630;7.254;2022-10-14T14:31:16;10.30;;;8.23;;
13941;SDS011;7043;51.630;7.254;2022-10-14T14:33:44;8.80;;;7.90;;
13941;SDS011;7043;51.630;7.254;2022-10-14T14:36:15;9.53;;;8.43;;
13941;SDS011;7043;51.630;7.254;2022-10-14T14:38:51;8.43;;;7.47;;
13941;SDS011;7043;51.630;7.254;2022-10-14T14:41:20;9.40;;;8.30;;
13941;SDS011;7043;51.630;7.254;2022-10-14T14:43:50;10.00;;;8.53;;
13941;SDS011;7043;51.630;7.254;2022-10-14T14:46:59;11.93;;;9.77;;
13941;SDS011;7043;51.630;7.254;2022-10-14T14:49:06;9.90;;;8.90;;
13941;SDS011;7043;51.630;7.254;2022-10-14T14:51:34;10.20;;;9.10;;
13941;SDS011;7043;51.630;7.254;2022-10-14T14:54:01;9.10;;;8.20;;
13941;SDS011;7043;51.630;7.254;2022-10-14T14:56:29;10.53;;;9.13;;
13941;SDS011;7043;51.630;7.254;2022-10-14T14:59:01;10.50;;;9.03;;
13941;SDS011;7043;51.630;7.254;2022-10-14T15:01:29;10.60;;;9.50;;
13941;SDS011;7043;51.630;7.254;2022-10-14T15:06:22;11.43;;;9.37;;
13941;SDS011;7043;51.630;7.254;2022-10-14T15:08:51;9.10;;;8.13;;
13941;SDS011;7043;51.630;7.254;2022-10-14T15:11:18;9.23;;;8.30;;
13941;SDS011;7043;51.630;7.254;2022-10-14T15:13:55;9.20;;;8.30;;
13941;SDS011;7043;51.630;7.254;2022-10-14T15:16:42;8.67;;;7.77;;
13941;SDS011;7043;51.630;7.254;2022-10-14T15:21:45;9.13;;;8.23;;
13941;SDS011;7043;51.630;7.254;2022-10-14T15:24:14;9.30;;;8.40;;
13941;SDS011;7043;51.630;7.254;2022-10-14T15:26:40;8.50;;;7.70;;
13941;SDS011;7043;51.630;7.254;2022-10-14T15:31:36;8.73;;;7.83;;
13941;SDS011;7043;51.630;7.254;2022-10-14T15:34:02;10.03;;;8.57;;
13941;SDS011;7043;51.630;7.254;2022-10-14T15:36:29;8.73;;;7.90;;
13941;SDS011;7043;51.630;7.254;2022-10-14T15:38:56;8.27;;;7.47;;
13941;SDS011;7043;51.630;7.254;2022-10-14T15:41:26;9.00;;;7.87;;
13941;SDS011;7043;51.630;7.254;2022-10-14T15:43:52;8.17;;;7.37;;
13941;SDS011;7043;51.630;7.254;2022-10-14T15:46:18;9.10;;;8.20;;
13941;SDS011;7043;51.630;7.254;2022-10-14T15:49:04;8.80;;;7.90;;
13941;SDS011;7043;51.630;7.254;2022-10-14T15:51:30;8.90;;;8.00;;
13941;SDS011;7043;51.630;7.254;2022-10-14T15:53:56;8.50;;;7.70;;
13941;SDS011;7043;51.630;7.254;2022-10-14T15:56:22;9.77;;;8.87;;
13941;SDS011;7043;51.630;7.254;2022-10-14T15:58:48;11.40;;;8.07;;
13941;SDS011;7043;51.630;7.254;2022-10-14T16:01:15;9.37;;;8.47;;
13941;SDS011;7043;51.630;7.254;2022-10-14T16:03:42;9.40;;;8.40;;
13941;SDS011;7043;51.630;7.254;2022-10-14T16:06:09;9.53;;;8.63;;
13941;SDS011;7043;51.630;7.254;2022-10-14T16:08:35;10.40;;;8.83;;
13941;SDS011;7043;51.630;7.254;2022-10-14T16:11:01;10.27;;;9.37;;
13941;SDS011;7043;51.630;7.254;2022-10-14T16:13:28;11.40;;;10.30;;
13941;SDS011;7043;51.630;7.254;2022-10-14T16:15:57;11.63;;;9.97;;
13941;SDS011;7043;51.630;7.254;2022-10-14T16:18:24;11.13;;;10.03;;
13941;SDS011;7043;51.630;7.254;2022-10-14T16:20:50;10.87;;;9.80;;
13941;SDS011;7043;51.630;7.254;2022-10-14T16:23:17;11.77;;;10.67;;
13941;SDS011;7043;51.630;7.254;2022-10-14T16:25:44;11.70;;;10.53;;
13941;SDS011;7043;51.630;7.254;2022-10-14T16:28:10;11.93;;;10.83;;
13941;SDS011;7043;51.630;7.254;2022-10-14T16:30:38;12.37;;;11.17;;
13941;SDS011;7043;51.630;7.254;2022-10-14T16:33:04;11.83;;;10.63;;
13941;SDS011;7043;51.630;7.254;2022-10-14T16:35:30;12.80;;;11.20;;
13941;SDS011;7043;51.630;7.254;2022-10-14T16:37:56;12.03;;;10.83;;
13941;SDS011;7043;51.630;7.254;2022-10-14T16:40:22;12.23;;;11.07;;
13941;SDS011;7043;51.630;7.254;2022-10-14T16:42:49;12.93;;;11.70;;
13941;SDS011;7043;51.630;7.254;2022-10-14T16:45:15;12.57;;;11.37;;
13941;SDS011;7043;51.630;7.254;2022-10-14T16:47:41;12.40;;;11.30;;
13941;SDS011;7043;51.630;7.254;2022-10-14T16:50:09;12.70;;;11.50;;
13941;SDS011;7043;51.630;7.254;2022-10-14T16:52:36;14.30;;;12.93;;
13941;SDS011;7043;51.630;7.254;2022-10-14T16:55:21;13.10;;;11.87;;
13941;SDS011;7043;51.630;7.254;2022-10-14T16:57:47;14.07;;;12.80;;
13941;SDS011;7043;51.630;7.254;2022-10-14T17:00:14;15.50;;;13.93;;
13941;SDS011;7043;51.630;7.254;2022-10-14T17:02:41;14.57;;;13.17;;
13941;SDS011;7043;51.630;7.254;2022-10-14T17:05:07;14.30;;;13.00;;